Time;durP1;ratioP1;P1;durP2;ratioP2;P2;SDS_P1;SDS_P2;PMS_P1;PMS_P2;Temp;Humidity;BMP_temperature;BMP_pressure;BME280_temperature;BME280_humidity;BME280_pressure;Samples;Min_cycle;Max_cycle;Signal;HPM_P1;HPM_P2
2022/01/24 15:04:45;;;;;;;52.85;34.90;;;5.90;99.90;;;;;;5092009;27;20442;-79
2022/01/24 15:07:12;;;;;;;56.60;34.97;;;5.60;99.90;;;;;;5092230;28;20052;-77
2022/01/24 15:09:39;;;;;;;55.92;36.72;;;5.60;99.90;;;;;;5092433;28;20052;-77
2022/01/24 15:12:07;;;;;;;59.53;39.47;;;5.60;99.90;;;;;;5092087;28;20127;-77
2022/01/24 15:14:40;;;;;;;61.53;38.92;;;5.60;99.90;;;;;;5091554;28;20480;-76
2022/01/24 15:17:26;;;;;;;57.07;36.43;;;5.60;99.90;;;;;;5092154;28;20108;-79
2022/01/24 15:27:40;;;;;;;59.35;39.00;;;5.60;99.90;;;;;;5090554;28;20095;-77
2022/01/24 15:30:09;;;;;;;61.30;39.65;;;5.60;99.90;;;;;;5090727;28;20055;-80
2022/01/24 15:32:34;;;;;;;60.78;38.58;;;5.70;99.90;;;;;;5090909;28;20059;-78
2022/01/24 15:35:00;;;;;;;52.65;35.78;;;5.70;99.90;;;;;;5078753;28;20044;-79
2022/01/24 15:37:26;;;;;;;55.35;38.15;;;5.60;99.90;;;;;;5053901;28;20056;-80
2022/01/24 15:39:54;;;;;;;58.33;38.13;;;5.60;99.90;;;;;;5070467;28;20032;-80
2022/01/24 15:42:43;;;;;;;59.67;39.42;;;5.70;99.90;;;;;;5053862;28;20041;-82
2022/01/24 15:47:44;;;;;;;58.10;38.75;;;5.60;99.90;;;;;;5070633;28;20106;-81
2022/01/24 15:50:14;;;;;;;60.05;39.60;;;5.60;99.90;;;;;;5068700;28;20133;-78
2022/01/24 15:52:40;;;;;;;60.55;39.65;;;5.60;99.90;;;;;;5069577;28;20045;-79
2022/01/24 15:55:09;;;;;;;57.75;38.13;;;5.50;99.90;;;;;;5069745;28;20064;-76
2022/01/24 15:57:40;;;;;;;60.30;39.53;;;5.60;99.90;;;;;;5069652;28;20559;-76
2022/01/24 16:00:19;;;;;;;59.42;40.20;;;5.60;99.90;;;;;;5070032;28;20057;-78
2022/01/24 16:02:57;;;;;;;60.00;38.38;;;5.60;99.90;;;;;;5070815;28;20347;-77
2022/01/24 16:05:24;;;;;;;58.60;38.60;;;5.60;99.90;;;;;;5071865;28;20057;-78
2022/01/24 16:07:51;;;;;;;62.75;40.70;;;5.60;99.90;;;;;;5189959;22;20057;-74
2022/01/24 16:10:21;;;;;;;62.35;41.70;;;5.60;99.90;;;;;;5042367;28;20111;-73
2022/01/24 16:12:48;;;;;;;69.07;42.60;;;5.60;99.90;;;;;;5042314;28;20448;-74
2022/01/24 16:15:20;;;;;;;60.90;40.53;;;5.60;99.90;;;;;;5021213;28;20144;-76
2022/01/24 16:17:47;;;;;;;67.35;43.10;;;5.60;99.90;;;;;;5017609;28;20130;-77
2022/01/24 16:25:34;;;;;;;60.70;40.03;;;5.70;99.90;;;;;;5037178;28;20053;-79
2022/01/24 16:28:08;;;;;;;60.50;38.33;;;5.60;99.90;;;;;;5036776;28;20049;-77
2022/01/24 16:30:38;;;;;;;61.55;40.17;;;5.60;99.90;;;;;;5036672;28;20471;-75
2022/01/24 16:33:05;;;;;;;61.53;41.80;;;5.60;99.90;;;;;;5037268;28;20057;-75
2022/01/24 16:35:32;;;;;;;63.40;40.90;;;5.60;99.90;;;;;;5036626;28;20045;-77
2022/01/24 16:37:59;;;;;;;63.08;40.90;;;5.60;99.90;;;;;;5035266;28;20471;-77
2022/01/24 16:40:39;;;;;;;66.45;42.22;;;5.60;99.90;;;;;;5036574;28;20387;-77
2022/01/24 16:43:20;;;;;;;61.58;39.45;;;5.70;99.90;;;;;;5035855;28;20128;-77
2022/01/24 16:48:45;;;;;;;61.55;39.05;;;5.60;99.90;;;;;;5036756;28;20089;-75
2022/01/24 16:51:14;;;;;;;61.92;39.85;;;5.50;99.90;;;;;;5036964;28;20053;-78
2022/01/24 16:53:42;;;;;;;63.28;41.80;;;5.50;99.90;;;;;;5036723;28;20061;-77
2022/01/24 16:56:08;;;;;;;62.92;40.20;;;5.50;99.90;;;;;;5036068;28;20038;-76
2022/01/24 16:58:34;;;;;;;64.18;40.85;;;5.50;99.90;;;;;;5036905;28;20525;-76
2022/01/24 17:01:00;;;;;;;61.55;40.65;;;5.50;99.90;;;;;;5035521;28;20459;-77
2022/01/24 17:03:29;;;;;;;65.90;42.10;;;5.60;99.90;;;;;;5035927;28;20135;-77
2022/01/24 17:05:55;;;;;;;62.55;38.92;;;5.50;99.90;;;;;;5036294;28;20041;-76
2022/01/24 17:08:21;;;;;;;59.50;39.88;;;5.50;99.90;;;;;;5036728;28;20472;-76
2022/01/24 17:10:48;;;;;;;62.65;40.47;;;5.60;99.90;;;;;;5035832;28;20111;-75
2022/01/24 17:13:14;;;;;;;64.65;41.28;;;5.50;99.90;;;;;;5036305;28;20202;-76
2022/01/24 17:15:46;;;;;;;63.70;40.95;;;5.50;99.90;;;;;;5035205;28;20176;-75
2022/01/24 17:18:14;;;;;;;60.47;39.17;;;5.60;99.90;;;;;;5035377;28;20127;-76
2022/01/24 17:20:40;;;;;;;62.45;39.88;;;5.50;99.90;;;;;;5034970;28;20050;-75
2022/01/24 17:23:05;;;;;;;64.38;40.88;;;5.60;99.90;;;;;;5034371;28;20076;-75
2022/01/24 17:25:31;;;;;;;65.20;39.85;;;5.60;99.90;;;;;;5036058;28;20060;-80
2022/01/24 17:27:59;;;;;;;67.40;42.38;;;5.60;99.90;;;;;;5018243;28;20045;-77
2022/01/24 17:30:25;;;;;;;61.90;39.65;;;5.60;99.90;;;;;;5035354;28;20377;-77
2022/01/24 17:32:51;;;;;;;64.32;40.83;;;5.60;99.90;;;;;;5036281;28;20049;-77
2022/01/24 17:35:19;;;;;;;68.18;41.95;;;5.50;99.90;;;;;;5034690;28;20513;-76
2022/01/24 17:37:46;;;;;;;65.45;40.10;;;5.60;99.90;;;;;;5035090;28;20045;-76
2022/01/24 17:40:14;;;;;;;66.28;39.70;;;5.50;99.90;;;;;;5035426;28;20060;-77
2022/01/24 17:42:43;;;;;;;68.05;42.40;;;5.50;99.90;;;;;;5035245;28;20077;-75
2022/01/24 17:45:11;;;;;;;63.95;41.20;;;5.50;99.90;;;;;;5036049;28;20049;-78
2022/01/24 17:47:37;;;;;;;63.95;39.85;;;5.50;99.90;;;;;;5035564;28;20033;-74
2022/01/24 17:50:07;;;;;;;62.30;40.97;;;5.50;99.90;;;;;;5035169;28;20064;-74
2022/01/24 17:52:33;;;;;;;65.22;40.15;;;5.50;99.90;;;;;;5032295;28;20467;-78
2022/01/24 17:54:58;;;;;;;62.17;40.13;;;5.50;99.90;;;;;;5035587;28;20041;-78
2022/01/24 17:57:24;;;;;;;66.15;40.88;;;5.50;99.90;;;;;;5035623;28;20478;-75
2022/01/24 17:59:50;;;;;;;64.20;41.75;;;5.40;99.90;;;;;;5035042;28;20053;-75
2022/01/24 18:02:15;;;;;;;65.07;40.92;;;5.50;99.90;;;;;;5035690;28;20037;-72
2022/01/24 18:04:41;;;;;;;64.45;40.17;;;5.50;99.90;;;;;;5035159;28;20555;-76
2022/01/24 18:07:07;;;;;;;68.35;42.05;;;5.40;99.90;;;;;;5034934;28;20367;-75
2022/01/24 18:09:33;;;;;;;66.40;41.67;;;5.40;99.90;;;;;;5035094;28;20460;-75
2022/01/24 18:11:59;;;;;;;64.97;40.72;;;5.40;99.90;;;;;;5035089;28;20049;-75
2022/01/24 18:14:25;;;;;;;62.47;40.20;;;5.40;99.90;;;;;;5035354;28;20041;-77
2022/01/24 18:16:51;;;;;;;70.00;40.78;;;5.40;99.90;;;;;;5034050;28;20425;-76
2022/01/24 18:19:16;;;;;;;66.57;40.78;;;5.40;99.90;;;;;;5033809;28;20162;-73
2022/01/24 18:21:42;;;;;;;60.88;38.40;;;5.40;99.90;;;;;;5035210;28;20087;-76
2022/01/24 18:24:08;;;;;;;65.82;42.58;;;5.40;99.90;;;;;;5034004;28;20049;-75
2022/01/24 18:26:34;;;;;;;61.90;40.28;;;5.40;99.90;;;;;;5034540;28;20033;-78
2022/01/24 18:29:00;;;;;;;63.28;40.03;;;5.50;99.90;;;;;;5031680;28;20383;-75
2022/01/24 18:31:26;;;;;;;67.03;41.42;;;5.40;99.90;;;;;;5017757;28;20049;-76
2022/01/24 18:33:52;;;;;;;60.67;40.50;;;5.50;99.90;;;;;;5033690;28;20061;-74
2022/01/24 18:36:18;;;;;;;61.80;39.45;;;5.50;99.90;;;;;;5034316;28;20379;-74
2022/01/24 18:38:43;;;;;;;60.10;39.47;;;5.40;99.90;;;;;;5034465;28;20053;-75
2022/01/24 18:41:09;;;;;;;65.50;41.83;;;5.40;99.90;;;;;;5034741;28;20057;-74
2022/01/24 18:43:37;;;;;;;65.10;41.42;;;5.40;99.90;;;;;;5033733;28;20052;-74
2022/01/24 18:46:03;;;;;;;66.45;41.65;;;5.50;99.90;;;;;;5034778;28;20371;-75
2022/01/24 18:48:29;;;;;;;66.43;42.65;;;5.40;99.90;;;;;;5035263;28;20415;-74
2022/01/24 18:50:55;;;;;;;71.32;43.40;;;5.50;99.90;;;;;;5033847;28;20060;-78
2022/01/24 18:53:21;;;;;;;67.45;43.13;;;5.50;99.90;;;;;;5034418;28;20053;-78
2022/01/24 18:55:47;;;;;;;66.15;42.25;;;5.50;99.90;;;;;;5033012;28;20053;-77
2022/01/24 18:58:14;;;;;;;68.97;44.67;;;5.40;99.90;;;;;;5034444;28;20080;-77
2022/01/24 19:00:40;;;;;;;66.03;43.35;;;5.50;99.90;;;;;;5034510;28;20037;-77
2022/01/24 19:03:06;;;;;;;64.57;44.13;;;5.50;99.90;;;;;;5034801;28;20061;-75
2022/01/24 19:05:32;;;;;;;71.75;44.38;;;5.50;99.90;;;;;;5034864;28;20041;-76
2022/01/24 19:08:00;;;;;;;65.43;42.42;;;5.50;99.90;;;;;;5033573;28;20111;-75
2022/01/24 19:10:28;;;;;;;63.38;41.47;;;5.40;99.90;;;;;;5034202;28;20065;-76
2022/01/24 19:12:53;;;;;;;67.40;42.10;;;5.40;99.90;;;;;;5033640;28;20527;-73
2022/01/24 19:15:26;;;;;;;74.55;43.63;;;5.50;99.90;;;;;;5033669;28;20116;-73
2022/01/24 19:23:17;;;;;;;66.05;42.17;;;5.40;99.90;;;;;;5034330;28;20049;-73
2022/01/24 19:25:58;;;;;;;67.25;41.42;;;5.40;99.90;;;;;;5034154;28;20040;-73
2022/01/24 19:28:29;;;;;;;64.28;40.78;;;5.40;99.90;;;;;;5034318;28;20420;-72
2022/01/24 19:30:55;;;;;;;68.00;42.47;;;5.30;99.90;;;;;;5033689;28;20511;-73
2022/01/24 19:33:21;;;;;;;62.78;39.53;;;5.30;99.90;;;;;;5034027;28;20057;-73
2022/01/24 19:35:50;;;;;;;66.20;41.67;;;5.30;99.90;;;;;;5034325;28;20045;-74
2022/01/24 19:38:16;;;;;;;66.32;42.85;;;5.30;99.90;;;;;;5033858;28;20085;-72
2022/01/24 19:40:43;;;;;;;67.68;41.15;;;5.30;99.90;;;;;;5033895;28;20438;-72
2022/01/24 19:43:09;;;;;;;68.55;40.40;;;5.30;99.90;;;;;;5034363;28;20151;-74
2022/01/24 19:45:35;;;;;;;70.10;41.33;;;5.20;99.90;;;;;;5034340;28;20045;-73
2022/01/24 19:48:03;;;;;;;68.07;42.42;;;5.30;99.90;;;;;;5033985;28;20045;-75
2022/01/24 19:50:33;;;;;;;66.97;41.83;;;5.30;99.90;;;;;;5035052;28;20168;-75
2022/01/24 19:52:59;;;;;;;67.22;41.30;;;5.20;99.90;;;;;;5037494;28;20107;-75
2022/01/24 19:55:36;;;;;;;67.70;41.65;;;5.30;99.90;;;;;;5037661;28;20517;-75
2022/01/24 20:00:36;;;;;;;68.57;40.70;;;5.30;99.90;;;;;;5037848;28;20227;-74
2022/01/24 20:03:02;;;;;;;67.35;42.10;;;5.20;99.90;;;;;;5037858;28;20440;-75
2022/01/24 20:05:27;;;;;;;66.10;42.70;;;5.20;99.90;;;;;;5034071;28;20085;-74
2022/01/24 20:07:53;;;;;;;68.05;41.10;;;5.20;99.90;;;;;;5035045;28;20103;-75
2022/01/24 20:10:19;;;;;;;68.40;42.10;;;5.20;99.90;;;;;;5037048;28;20136;-76
2022/01/24 20:12:44;;;;;;;74.57;43.15;;;5.20;99.90;;;;;;5037374;28;20146;-76
2022/01/24 20:15:10;;;;;;;69.78;40.85;;;5.20;99.90;;;;;;5037465;28;20045;-74
2022/01/24 20:17:36;;;;;;;67.57;42.00;;;5.10;99.90;;;;;;5036770;28;20068;-77
2022/01/24 20:20:03;;;;;;;69.00;41.42;;;5.20;99.90;;;;;;5036286;28;20095;-76
2022/01/24 20:22:28;;;;;;;67.85;41.95;;;5.10;99.90;;;;;;5036130;28;20068;-75
2022/01/24 20:24:54;;;;;;;66.57;42.75;;;5.10;99.90;;;;;;5037407;28;20041;-75
2022/01/24 20:27:19;;;;;;;70.85;43.45;;;5.20;99.90;;;;;;5037343;28;20399;-77
2022/01/24 20:29:45;;;;;;;70.40;42.63;;;5.10;99.90;;;;;;5037421;28;20353;-76
2022/01/24 20:32:10;;;;;;;67.70;41.58;;;5.10;99.90;;;;;;5037240;28;20477;-76
2022/01/24 20:34:36;;;;;;;66.85;40.78;;;5.10;99.90;;;;;;5035080;28;20054;-76
2022/01/24 20:37:03;;;;;;;66.43;42.28;;;5.10;99.90;;;;;;5036231;28;20367;-73
2022/01/24 20:39:28;;;;;;;67.10;40.17;;;5.10;99.90;;;;;;5036475;28;20124;-74
2022/01/24 20:41:54;;;;;;;67.65;40.15;;;5.10;99.90;;;;;;5037145;28;20434;-77
2022/01/24 20:44:20;;;;;;;69.35;39.92;;;5.10;99.90;;;;;;5036396;28;20376;-76
2022/01/24 20:46:46;;;;;;;68.68;41.03;;;5.00;99.90;;;;;;5036920;28;20128;-76
2022/01/24 20:49:12;;;;;;;64.72;38.75;;;5.00;99.90;;;;;;5036850;28;20056;-75
2022/01/24 20:51:39;;;;;;;67.07;41.13;;;5.00;99.90;;;;;;5037132;28;20056;-76
2022/01/24 20:54:05;;;;;;;64.60;39.20;;;5.00;99.90;;;;;;5036683;28;20128;-74
2022/01/24 20:56:31;;;;;;;68.20;41.97;;;5.00;99.90;;;;;;5036772;28;20076;-72
2022/01/24 20:58:56;;;;;;;68.03;39.70;;;5.00;99.90;;;;;;5035543;28;20049;-73
2022/01/24 21:01:22;;;;;;;65.38;40.13;;;5.00;99.90;;;;;;5036068;28;20356;-71
2022/01/24 21:03:47;;;;;;;65.40;41.13;;;5.00;99.90;;;;;;5036346;28;20435;-74
2022/01/24 21:06:13;;;;;;;67.93;39.45;;;5.00;99.90;;;;;;5036489;28;20050;-73
2022/01/24 21:08:39;;;;;;;66.88;39.95;;;5.00;99.90;;;;;;5035607;28;20132;-74
2022/01/24 21:11:10;;;;;;;67.70;39.42;;;5.00;99.90;;;;;;5036667;28;20136;-71
2022/01/24 21:16:16;;;;;;;67.65;39.15;;;5.00;99.90;;;;;;5036183;28;20341;-71
2022/01/24 21:18:42;;;;;;;67.22;39.47;;;4.90;99.90;;;;;;5035866;28;20088;-75
2022/01/24 21:21:09;;;;;;;71.05;42.90;;;4.90;99.90;;;;;;5035834;28;20049;-74
2022/01/24 21:23:36;;;;;;;65.78;40.60;;;5.00;99.90;;;;;;5036099;28;20050;-76
2022/01/24 21:26:03;;;;;;;73.18;42.25;;;4.90;99.90;;;;;;5036370;28;20045;-73
2022/01/24 21:28:28;;;;;;;70.65;41.72;;;4.90;99.90;;;;;;5035679;28;20037;-73
2022/01/24 21:30:54;;;;;;;71.10;41.95;;;4.90;99.90;;;;;;5036193;28;20444;-73
2022/01/24 21:33:21;;;;;;;71.18;41.50;;;4.90;99.90;;;;;;5036167;28;20391;-74
2022/01/24 21:35:48;;;;;;;74.32;42.90;;;5.00;99.90;;;;;;5035383;28;20186;-73
2022/01/24 21:38:14;;;;;;;68.97;40.55;;;4.90;99.90;;;;;;5036410;28;20096;-74
2022/01/24 21:40:42;;;;;;;70.63;41.80;;;4.90;99.90;;;;;;5036270;28;20096;-74
2022/01/24 21:43:08;;;;;;;67.70;40.88;;;4.90;99.90;;;;;;5034893;28;20486;-77
2022/01/24 21:45:36;;;;;;;67.28;40.17;;;4.90;99.90;;;;;;5033343;28;20116;-75
2022/01/24 21:48:02;;;;;;;73.38;42.33;;;4.90;99.90;;;;;;5036036;28;20045;-75
2022/01/24 21:50:29;;;;;;;68.18;41.85;;;4.90;99.90;;;;;;5034655;28;20046;-74
2022/01/24 21:52:55;;;;;;;74.90;43.47;;;4.90;99.90;;;;;;5036013;28;20347;-73
2022/01/24 21:55:31;;;;;;;70.75;42.05;;;4.90;99.90;;;;;;5035955;28;20364;-73
2022/01/24 21:57:59;;;;;;;67.28;39.88;;;4.80;99.90;;;;;;5035005;28;20124;-74
2022/01/24 22:00:26;;;;;;;72.60;43.08;;;4.80;99.90;;;;;;5035480;28;20049;-74
2022/01/24 22:02:54;;;;;;;78.70;43.20;;;4.80;99.90;;;;;;5035076;28;20038;-74
2022/01/24 22:05:21;;;;;;;67.28;40.85;;;4.80;99.90;;;;;;5020125;28;20080;-72
2022/01/24 22:10:16;;;;;;;71.22;40.53;;;4.80;99.90;;;;;;5035458;28;20049;-74
2022/01/24 22:12:41;;;;;;;70.68;41.25;;;4.80;99.90;;;;;;5035040;28;20138;-75
2022/01/24 22:15:12;;;;;;;76.10;41.20;;;4.80;99.90;;;;;;5035343;28;20483;-74
2022/01/24 22:17:38;;;;;;;72.03;42.33;;;4.80;99.90;;;;;;5034364;28;20467;-73
2022/01/24 22:20:07;;;;;;;71.95;42.17;;;4.80;99.90;;;;;;5019694;28;20046;-73
2022/01/24 22:25:25;;;;;;;70.15;41.58;;;4.80;99.90;;;;;;5019458;28;20052;-74
2022/01/24 22:27:51;;;;;;;73.60;41.10;;;4.80;99.90;;;;;;5034023;28;20050;-73
2022/01/24 22:30:17;;;;;;;69.22;41.78;;;4.70;99.90;;;;;;5035240;28;20360;-75
2022/01/24 22:32:43;;;;;;;76.18;40.75;;;4.70;99.90;;;;;;5034528;28;20059;-72
2022/01/24 22:35:09;;;;;;;71.32;41.28;;;4.70;99.90;;;;;;5034514;28;20506;-73
2022/01/24 22:37:35;;;;;;;69.32;42.60;;;4.70;99.90;;;;;;5035400;28;20057;-73
2022/01/24 22:40:03;;;;;;;67.05;38.05;;;4.70;99.90;;;;;;5034877;28;20362;-74
2022/01/24 22:42:29;;;;;;;72.28;40.08;;;4.70;99.90;;;;;;5034164;28;20053;-73
2022/01/24 22:44:55;;;;;;;75.10;41.42;;;4.70;99.90;;;;;;5035200;28;20064;-73
2022/01/24 22:47:20;;;;;;;71.88;41.75;;;4.70;99.90;;;;;;5034467;28;20099;-74
2022/01/24 22:49:46;;;;;;;69.60;39.95;;;4.60;99.90;;;;;;5033983;28;20045;-74
2022/01/24 22:52:11;;;;;;;75.03;42.30;;;4.70;99.90;;;;;;5034545;28;20049;-73
2022/01/24 22:54:38;;;;;;;73.38;41.92;;;4.60;99.90;;;;;;5034119;28;20045;-74
2022/01/24 22:57:04;;;;;;;72.88;40.90;;;4.70;99.90;;;;;;5034917;28;20045;-74
2022/01/24 22:59:34;;;;;;;71.20;40.55;;;4.70;99.90;;;;;;5034744;28;20091;-74
2022/01/24 23:01:59;;;;;;;70.57;41.60;;;4.70;99.90;;;;;;5034624;28;20077;-74
2022/01/24 23:04:26;;;;;;;74.57;41.22;;;4.70;99.90;;;;;;5034619;28;20115;-73
2022/01/24 23:06:52;;;;;;;67.82;40.25;;;4.70;99.90;;;;;;5034709;28;20120;-74
2022/01/24 23:09:19;;;;;;;70.20;40.53;;;4.70;99.90;;;;;;5034300;28;20061;-74
2022/01/24 23:11:45;;;;;;;68.22;40.13;;;4.70;99.90;;;;;;5034728;28;20045;-73
2022/01/24 23:19:21;;;;;;;78.72;42.47;;;4.60;99.90;;;;;;5034705;28;20057;-73
2022/01/24 23:21:50;;;;;;;67.88;39.75;;;4.60;99.90;;;;;;5034258;28;20042;-75
2022/01/24 23:24:22;;;;;;;73.18;41.38;;;4.60;99.90;;;;;;5034633;28;20045;-74
2022/01/24 23:26:57;;;;;;;70.65;39.28;;;4.60;99.90;;;;;;5038147;28;20103;-73
2022/01/24 23:29:25;;;;;;;70.22;41.25;;;4.60;99.90;;;;;;5038643;28;20118;-74
2022/01/24 23:31:53;;;;;;;72.60;41.35;;;4.60;99.90;;;;;;5037709;28;20049;-74
2022/01/24 23:34:33;;;;;;;74.70;41.05;;;4.60;99.90;;;;;;5038255;28;20455;-73
2022/01/24 23:39:47;;;;;;;74.97;41.55;;;4.60;99.90;;;;;;5038642;28;20053;-74
2022/01/24 23:42:13;;;;;;;69.68;39.47;;;4.60;99.90;;;;;;5038092;28;20085;-74
2022/01/24 23:44:38;;;;;;;69.50;42.17;;;4.60;99.90;;;;;;5038015;28;20497;-74
2022/01/24 23:47:05;;;;;;;72.85;41.83;;;4.60;99.90;;;;;;5038519;28;20050;-73
2022/01/24 23:49:31;;;;;;;73.53;41.97;;;4.60;99.90;;;;;;5038137;28;20378;-72
2022/01/24 23:51:57;;;;;;;67.55;37.75;;;4.60;99.90;;;;;;5038434;28;20037;-75
2022/01/24 23:54:24;;;;;;;71.80;39.05;;;4.60;99.90;;;;;;5037661;28;20482;-74
2022/01/24 23:57:00;;;;;;;73.03;41.63;;;4.60;99.90;;;;;;5037429;28;20136;-74
